Time;durP1;ratioP1;P1;durP2;ratioP2;P2;SDS_P1;SDS_P2;PMS_P1;PMS_P2;Temp;Humidity;BMP_temperature;BMP_pressure;BME280_temperature;BME280_humidity;BME280_pressure;Samples;Min_cycle;Max_cycle;Signal;HPM_P1;HPM_P2
2021/08/21 00:02:08;;;;;;;;;;;;;;;20.73;89.38;99287.16;5014674;28;19923;-77
2021/08/21 00:04:37;;;;;;;;;;;;;;;20.71;85.84;99282.97;5012432;28;20316;-77
2021/08/21 00:07:02;;;;;;;;;;;;;;;20.64;87.38;99287.78;5019430;28;19917;-77
2021/08/21 00:09:27;;;;;;;;;;;;;;;20.63;91.36;99281.72;5014971;28;20388;-77
2021/08/21 00:11:53;;;;;;;;;;;;;;;20.58;87.34;99272.53;4995982;28;19929;-77
2021/08/21 00:14:18;;;;;;;;;;;;;;;20.51;92.78;99274.69;5014536;28;20008;-77
2021/08/21 00:16:43;;;;;;;;;;;;;;;20.63;91.00;99280.91;4998046;28;20300;-77
2021/08/21 00:19:09;;;;;;;;;;;;;;;20.59;nan;99285.50;5016719;28;20028;-77
2021/08/21 00:21:34;;;;;;;;;;;;;;;20.52;87.79;99283.38;5011347;28;19921;-77
2021/08/21 00:23:59;;;;;;;;;;;;;;;20.42;88.04;99278.78;4998957;28;19913;-77
2021/08/21 00:26:25;;;;;;;;;;;;;;;20.38;92.08;99277.31;5012047;28;19914;-77
2021/08/21 00:28:50;;;;;;;;;;;;;;;20.37;92.85;99280.06;5012406;28;19920;-77
2021/08/21 00:31:15;;;;;;;;;;;;;;;20.42;93.30;99272.72;5012074;28;20008;-77
2021/08/21 00:33:41;;;;;;;;;;;;;;;20.46;91.36;99268.97;5019843;28;19985;-77
2021/08/21 00:36:06;;;;;;;;;;;;;;;20.19;89.85;99272.50;4998585;28;20387;-77
2021/08/21 00:38:31;;;;;;;;;;;;;;;20.34;90.44;99265.38;5013969;28;19921;-77
2021/08/21 00:40:57;;;;;;;;;;;;;;;19.63;100.00;99264.81;4996039;28;19961;-77
2021/08/21 00:43:22;;;;;;;;;;;;;;;19.81;100.00;99264.59;4997794;28;20400;-78
2021/08/21 00:45:48;;;;;;;;;;;;;;;20.10;92.57;99261.81;5015506;28;20673;-77
2021/08/21 00:48:14;;;;;;;;;;;;;;;20.11;95.93;99263.50;5013758;28;20324;-77
2021/08/21 00:50:39;;;;;;;;;;;;;;;20.19;96.58;99271.66;5011715;28;19917;-77
2021/08/21 00:53:05;;;;;;;;;;;;;;;19.95;100.00;99263.69;5011131;28;19956;-77
2021/08/21 00:55:30;;;;;;;;;;;;;;;20.01;94.49;99260.66;5014523;28;19939;-77
2021/08/21 00:57:55;;;;;;;;;;;;;;;20.11;91.92;99264.31;5013984;28;20357;-77
2021/08/21 01:00:21;;;;;;;;;;;;;;;20.16;95.20;99269.25;5013457;28;19957;-77
2021/08/21 01:02:46;;;;;;;;;;;;;;;19.95;92.16;99263.69;5012898;28;19918;-77
2021/08/21 01:05:15;;;;;;;;;;;;;;;20.00;97.58;99266.81;5009844;28;20013;-77
2021/08/21 01:07:40;;;;;;;;;;;;;;;19.72;98.21;99262.59;5015137;28;20373;-77
2021/08/21 01:10:12;;;;;;;;;;;;;;;19.90;96.84;99261.38;5009965;28;19925;-77
2021/08/21 01:12:37;;;;;;;;;;;;;;;19.64;100.00;99266.50;4996180;28;19913;-77
2021/08/21 01:15:03;;;;;;;;;;;;;;;19.91;94.23;99263.06;5011736;28;20305;-77
2021/08/21 01:17:28;;;;;;;;;;;;;;;19.90;87.31;99265.75;4995517;28;19918;-77
2021/08/21 01:19:53;;;;;;;;;;;;;;;19.96;95.24;99266.19;4993411;28;19932;-77
2021/08/21 01:22:20;;;;;;;;;;;;;;;19.92;98.73;99272.56;4997194;28;20011;-77
2021/08/21 01:24:46;;;;;;;;;;;;;;;19.89;90.37;99267.56;4999354;28;19972;-77
2021/08/21 01:27:16;;;;;;;;;;;;;;;19.90;97.59;99268.38;5010656;28;19945;-77
2021/08/21 01:29:41;;;;;;;;;;;;;;;19.81;94.55;99262.81;4994848;28;20369;-77
2021/08/21 01:32:06;;;;;;;;;;;;;;;19.79;90.64;99261.25;5013574;28;19921;-77
2021/08/21 01:34:32;;;;;;;;;;;;;;;19.72;98.31;99268.63;5016653;28;19998;-77
2021/08/21 01:36:57;;;;;;;;;;;;;;;19.74;94.56;99271.16;5015098;28;19960;-77
2021/08/21 01:39:22;;;;;;;;;;;;;;;19.74;94.12;99269.38;5016773;28;19929;-77
2021/08/21 01:41:48;;;;;;;;;;;;;;;19.71;94.86;99271.38;5014801;28;19914;-77
2021/08/21 01:44:14;;;;;;;;;;;;;;;19.51;99.83;99262.19;5014905;28;19922;-77
2021/08/21 01:46:39;;;;;;;;;;;;;;;19.74;99.53;99271.16;4998892;28;19952;-77
2021/08/21 01:49:11;;;;;;;;;;;;;;;19.69;95.16;99270.63;5018525;28;19953;-77
2021/08/21 01:51:36;;;;;;;;;;;;;;;19.36;89.96;99272.69;5015000;28;19948;-77
2021/08/21 01:54:02;;;;;;;;;;;;;;;19.66;97.41;99269.03;5013284;28;19965;-77
2021/08/21 01:56:28;;;;;;;;;;;;;;;19.71;95.78;99269.59;5010700;28;20802;-77
2021/08/21 01:58:53;;;;;;;;;;;;;;;19.63;94.55;99270.03;5013625;28;20685;-77
2021/08/21 02:01:18;;;;;;;;;;;;;;;19.58;97.84;99268.69;5016217;28;19956;-77
2021/08/21 02:03:46;;;;;;;;;;;;;;;19.58;100.00;99266.91;5016983;28;19924;-77
2021/08/21 02:06:14;;;;;;;;;;;;;;;19.61;96.45;99268.47;5012930;28;19918;-77
2021/08/21 02:08:40;;;;;;;;;;;;;;;19.62;98.76;99271.00;4995615;28;19914;-77
2021/08/21 02:11:05;;;;;;;;;;;;;;;19.53;97.55;99274.19;5018238;28;19980;-77
2021/08/21 02:13:30;;;;;;;;;;;;;;;19.54;99.55;99273.25;5017436;28;19918;-77
2021/08/21 02:15:56;;;;;;;;;;;;;;;18.78;100.00;99282.38;5016307;28;19989;-77
2021/08/21 02:18:21;;;;;;;;;;;;;;;18.68;100.00;99281.25;5014008;28;20381;-77
2021/08/21 02:20:46;;;;;;;;;;;;;;;19.19;100.00;99275.53;5011810;28;19929;-77
2021/08/21 02:23:12;;;;;;;;;;;;;;;19.15;92.13;99269.63;5012493;28;19917;-77
2021/08/21 02:25:38;;;;;;;;;;;;;;;19.15;91.93;99274.88;5016486;28;19914;-77
2021/08/21 02:28:08;;;;;;;;;;;;;;;19.19;100.00;99272.91;5011942;28;19988;-77
2021/08/21 02:30:37;;;;;;;;;;;;;;;19.23;100.00;99270.00;5013980;28;19925;-77
2021/08/21 02:33:02;;;;;;;;;;;;;;;19.20;94.48;99272.81;4993044;28;19918;-77
2021/08/21 02:35:28;;;;;;;;;;;;;;;19.13;94.51;99266.28;5011397;28;19968;-77
2021/08/21 02:37:53;;;;;;;;;;;;;;;18.76;93.86;99265.94;5000205;28;19957;-77
2021/08/21 02:40:18;;;;;;;;;;;;;;;19.00;94.19;99260.19;5014390;28;20025;-77
2021/08/21 02:42:44;;;;;;;;;;;;;;;18.89;96.82;99268.66;5014991;28;19943;-78
2021/08/21 02:45:10;;;;;;;;;;;;;;;19.06;100.00;99266.78;4997236;28;19921;-77
2021/08/21 02:47:35;;;;;;;;;;;;;;;18.68;97.67;99268.19;5015605;28;19964;-77
2021/08/21 02:50:00;;;;;;;;;;;;;;;18.75;100.00;99266.06;5014276;28;19921;-77
2021/08/21 02:52:26;;;;;;;;;;;;;;;18.95;94.40;99262.22;4998358;28;19898;-78
2021/08/21 02:54:51;;;;;;;;;;;;;;;18.87;95.44;99259.28;5017453;28;20356;-77
2021/08/21 02:57:16;;;;;;;;;;;;;;;18.77;96.76;99259.84;5011813;28;19913;-77
2021/08/21 02:59:41;;;;;;;;;;;;;;;18.89;100.00;99262.63;5011959;28;19925;-77
2021/08/21 03:02:07;;;;;;;;;;;;;;;18.80;92.51;99262.25;5013298;28;19922;-77
2021/08/21 03:04:33;;;;;;;;;;;;;;;18.92;96.00;99251.97;5015878;28;19949;-77
2021/08/21 03:06:58;;;;;;;;;;;;;;;18.87;94.99;99254.06;5001158;28;19917;-78
2021/08/21 03:09:23;;;;;;;;;;;;;;;18.84;100.00;99249.88;5012910;28;19922;-77
2021/08/21 03:11:48;;;;;;;;;;;;;;;19.00;93.74;99241.91;5011881;28;19968;-77
2021/08/21 03:14:14;;;;;;;;;;;;;;;18.81;92.67;99245.66;5014352;28;20049;-77
2021/08/21 03:16:39;;;;;;;;;;;;;;;18.73;100.00;99252.25;5012394;28;19961;-77
2021/08/21 03:19:04;;;;;;;;;;;;;;;18.83;91.14;99257.78;5013687;28;19921;-77
2021/08/21 03:21:30;;;;;;;;;;;;;;;18.81;98.93;99250.88;4996538;28;20012;-77
2021/08/21 03:23:55;;;;;;;;;;;;;;;18.79;99.26;99263.19;5012330;28;20021;-77
2021/08/21 03:26:20;;;;;;;;;;;;;;;18.72;98.48;99261.00;5011949;28;19913;-77
2021/08/21 03:28:45;;;;;;;;;;;;;;;18.88;98.61;99259.16;5011874;28;19929;-78
2021/08/21 03:31:11;;;;;;;;;;;;;;;18.59;99.35;99255.72;4998773;28;19964;-77
2021/08/21 03:33:36;;;;;;;;;;;;;;;18.63;100.00;99262.41;5011321;28;20342;-77
2021/08/21 03:36:01;;;;;;;;;;;;;;;18.44;100.00;99261.84;5013432;28;19922;-78
2021/08/21 03:38:27;;;;;;;;;;;;;;;18.46;95.76;99260.81;5014269;28;19922;-77
2021/08/21 03:40:52;;;;;;;;;;;;;;;18.63;100.00;99262.41;5010728;28;20012;-77
2021/08/21 03:43:17;;;;;;;;;;;;;;;18.38;96.16;99266.50;4996450;28;20015;-77
2021/08/21 03:45:44;;;;;;;;;;;;;;;18.36;100.00;99264.94;5015441;28;19917;-78
2021/08/21 03:48:10;;;;;;;;;;;;;;;18.52;99.72;99265.69;4997411;28;19917;-77
2021/08/21 03:50:35;;;;;;;;;;;;;;;18.24;100.00;99266.47;5013087;28;20384;-77
2021/08/21 03:53:01;;;;;;;;;;;;;;;18.50;100.00;99262.31;5015157;28;19917;-77
2021/08/21 03:55:26;;;;;;;;;;;;;;;18.56;100.00;99263.72;5013543;28;19926;-78
2021/08/21 03:57:51;;;;;;;;;;;;;;;18.73;97.94;99260.09;5011501;28;19918;-77
2021/08/21 04:00:16;;;;;;;;;;;;;;;18.61;99.91;99259.06;5011452;28;19918;-77
2021/08/21 04:02:42;;;;;;;;;;;;;;;18.71;97.65;99265.38;5010180;28;20005;-78
2021/08/21 04:05:08;;;;;;;;;;;;;;;18.43;100.00;99265.38;4996494;28;20266;-77
2021/08/21 04:07:33;;;;;;;;;;;;;;;18.56;100.00;99266.31;5015142;28;20349;-77
2021/08/21 04:09:58;;;;;;;;;;;;;;;18.48;98.53;99258.97;4993572;28;19921;-77
2021/08/21 04:12:23;;;;;;;;;;;;;;;18.50;100.00;99264.09;5010067;28;19980;-78
2021/08/21 04:14:49;;;;;;;;;;;;;;;18.54;96.30;99262.97;5010546;28;20340;-78
2021/08/21 04:17:14;;;;;;;;;;;;;;;18.60;100.00;99267.81;5011129;28;19937;-77
2021/08/21 04:19:39;;;;;;;;;;;;;;;18.58;100.00;99264.47;5010359;28;19925;-78
2021/08/21 04:22:05;;;;;;;;;;;;;;;18.30;99.93;99266.13;5013284;28;19981;-77
2021/08/21 04:24:30;;;;;;;;;;;;;;;18.34;97.84;99266.78;4995683;28;19913;-77
2021/08/21 04:26:55;;;;;;;;;;;;;;;18.45;100.00;99263.53;5010892;28;19918;-77
2021/08/21 04:29:20;;;;;;;;;;;;;;;18.38;100.00;99270.88;5012105;28;20385;-77
2021/08/21 04:31:46;;;;;;;;;;;;;;;18.27;92.82;99275.88;5012057;28;19917;-78
2021/08/21 04:34:11;;;;;;;;;;;;;;;18.12;100.00;99277.63;5010347;28;19976;-78
2021/08/21 04:36:36;;;;;;;;;;;;;;;18.16;100.00;99271.31;5008725;28;19924;-77
2021/08/21 04:39:02;;;;;;;;;;;;;;;18.06;100.00;99270.16;4998833;28;19918;-77
2021/08/21 04:41:27;;;;;;;;;;;;;;;18.22;95.64;99281.38;5015450;28;19944;-77
2021/08/21 04:43:52;;;;;;;;;;;;;;;18.02;98.40;99272.13;5010319;28;20474;-77
2021/08/21 04:46:18;;;;;;;;;;;;;;;17.84;99.64;99275.81;5009907;28;19960;-78
2021/08/21 04:48:43;;;;;;;;;;;;;;;17.87;100.00;99279.06;5012747;28;19972;-78
2021/08/21 04:51:08;;;;;;;;;;;;;;;17.95;100.00;99276.88;5010636;28;19917;-77
2021/08/21 04:53:34;;;;;;;;;;;;;;;17.71;100.00;99275.63;5013382;28;19953;-77
2021/08/21 04:55:59;;;;;;;;;;;;;;;17.96;100.00;99277.69;5016780;28;19949;-77
2021/08/21 04:58:24;;;;;;;;;;;;;;;17.87;100.00;99276.44;5014345;28;19918;-77
2021/08/21 05:00:50;;;;;;;;;;;;;;;17.72;100.00;99275.56;5012069;28;19921;-78
2021/08/21 05:03:15;;;;;;;;;;;;;;;18.06;100.00;99278.00;5012395;28;19960;-78
2021/08/21 05:05:40;;;;;;;;;;;;;;;18.24;100.00;99276.91;5014292;28;19902;-79
2021/08/21 05:08:06;;;;;;;;;;;;;;;18.23;100.00;99283.06;5019885;28;19918;-77
2021/08/21 05:10:31;;;;;;;;;;;;;;;18.05;100.00;99284.16;5018263;28;20062;-78
2021/08/21 05:12:56;;;;;;;;;;;;;;;17.80;100.00;99285.53;5016953;28;19921;-77
2021/08/21 05:15:21;;;;;;;;;;;;;;;18.10;100.00;99292.53;5015180;28;19917;-77
2021/08/21 05:17:49;;;;;;;;;;;;;;;18.20;99.73;99288.47;5016085;28;19917;-77
2021/08/21 05:20:17;;;;;;;;;;;;;;;18.30;100.00;99294.81;4998359;28;19926;-78
2021/08/21 05:25:08;;;;;;;;;;;;;;;17.95;100.00;99291.66;5013957;28;19913;-78
2021/08/21 05:27:34;;;;;;;;;;;;;;;18.42;94.87;99284.56;5017646;28;19920;-77
2021/08/21 05:29:59;;;;;;;;;;;;;;;18.32;100.00;99285.13;5014095;28;19993;-77
2021/08/21 05:32:24;;;;;;;;;;;;;;;18.28;100.00;99288.84;5015319;28;19918;-77
2021/08/21 05:34:49;;;;;;;;;;;;;;;18.03;100.00;99288.59;5012704;28;20481;-77
2021/08/21 05:37:15;;;;;;;;;;;;;;;18.37;100.00;99282.25;5014907;28;19917;-78
2021/08/21 05:39:40;;;;;;;;;;;;;;;18.83;100.00;99289.09;5011768;28;20384;-77
2021/08/21 05:42:05;;;;;;;;;;;;;;;18.88;99.91;99282.63;5012992;28;19914;-77
2021/08/21 05:44:31;;;;;;;;;;;;;;;19.02;100.00;99284.38;4996032;28;20374;-77
2021/08/21 05:46:56;;;;;;;;;;;;;;;19.19;100.00;99288.56;5018009;28;19946;-77
2021/08/21 05:49:21;;;;;;;;;;;;;;;19.20;100.00;99296.31;5015858;28;19921;-78
2021/08/21 05:51:47;;;;;;;;;;;;;;;19.47;100.00;99290.25;5014011;28;19922;-77
2021/08/21 05:54:12;;;;;;;;;;;;;;;19.31;100.00;99285.19;5017183;28;19936;-77
2021/08/21 05:56:37;;;;;;;;;;;;;;;19.35;100.00;99291.06;5012708;28;19917;-78
2021/08/21 05:59:02;;;;;;;;;;;;;;;19.31;100.00;99289.56;5012940;28;20376;-77
2021/08/21 06:01:28;;;;;;;;;;;;;;;19.40;100.00;99288.97;5012672;28;20566;-77
2021/08/21 06:03:53;;;;;;;;;;;;;;;19.59;100.00;99294.72;5001986;28;19917;-77
2021/08/21 06:06:23;;;;;;;;;;;;;;;19.81;100.00;99285.50;5014007;28;20424;-78
2021/08/21 06:08:49;;;;;;;;;;;;;;;19.90;99.44;99295.34;5021578;28;19921;-77
2021/08/21 06:11:14;;;;;;;;;;;;;;;19.59;96.12;99294.72;5019074;28;19928;-78
2021/08/21 06:13:40;;;;;;;;;;;;;;;19.49;96.63;99288.38;4998112;28;19976;-78
2021/08/21 06:16:05;;;;;;;;;;;;;;;20.11;100.00;99294.88;5013741;28;20031;-77
2021/08/21 06:18:31;;;;;;;;;;;;;;;20.00;98.60;99292.97;5012353;28;19925;-77
2021/08/21 06:20:56;;;;;;;;;;;;;;;20.23;99.26;99294.91;5016052;28;20705;-76
2021/08/21 06:23:21;;;;;;;;;;;;;;;20.44;100.00;99297.81;5011760;28;19921;-77
2021/08/21 06:25:47;;;;;;;;;;;;;;;19.94;99.59;99296.81;5012644;28;19967;-77
2021/08/21 06:28:13;;;;;;;;;;;;;;;20.22;99.93;99298.44;5012267;28;20023;-77
2021/08/21 06:30:38;;;;;;;;;;;;;;;20.22;95.35;99302.84;5011238;28;19922;-77
2021/08/21 06:33:03;;;;;;;;;;;;;;;20.00;100.00;99293.81;5010907;28;19925;-77
2021/08/21 06:35:29;;;;;;;;;;;;;;;20.16;100.00;99298.00;5012632;28;20381;-77
2021/08/21 06:37:54;;;;;;;;;;;;;;;19.85;100.00;99294.81;5012930;28;19948;-77
2021/08/21 06:40:19;;;;;;;;;;;;;;;20.20;100.00;99299.47;5013106;28;19941;-77
2021/08/21 06:42:45;;;;;;;;;;;;;;;20.22;94.81;99297.59;4996448;28;19935;-77
2021/08/21 06:45:10;;;;;;;;;;;;;;;19.92;99.85;99296.09;5011513;28;20035;-77
2021/08/21 06:47:36;;;;;;;;;;;;;;;19.92;100.00;99295.25;5011800;28;19921;-78
2021/08/21 06:50:02;;;;;;;;;;;;;;;20.23;99.50;99299.25;5009826;28;19921;-77
2021/08/21 06:52:27;;;;;;;;;;;;;;;20.09;98.90;99292.34;5010429;28;20365;-77
2021/08/21 06:54:52;;;;;;;;;;;;;;;20.56;98.93;99290.09;5010930;28;19925;-76
2021/08/21 06:57:18;;;;;;;;;;;;;;;20.67;95.00;99295.44;4995693;28;19929;-76
2021/08/21 06:59:43;;;;;;;;;;;;;;;21.10;98.42;99295.06;5009106;28;19921;-76
2021/08/21 07:02:09;;;;;;;;;;;;;;;20.92;91.06;99297.19;4995804;28;19937;-77
2021/08/21 07:04:34;;;;;;;;;;;;;;;21.04;95.20;99298.94;5010114;28;20040;-77
2021/08/21 07:06:59;;;;;;;;;;;;;;;21.23;90.74;99295.88;5011067;28;19924;-77
2021/08/21 07:09:24;;;;;;;;;;;;;;;21.31;94.39;99288.28;5011809;28;19918;-77
2021/08/21 07:11:50;;;;;;;;;;;;;;;20.96;95.03;99292.56;5011116;28;19925;-77
2021/08/21 07:14:19;;;;;;;;;;;;;;;21.17;95.58;99296.31;5009274;28;19925;-77
2021/08/21 07:16:44;;;;;;;;;;;;;;;21.63;100.00;99297.44;5011310;28;19929;-76
2021/08/21 07:19:09;;;;;;;;;;;;;;;21.75;94.34;99291.28;4990266;28;20008;-76
2021/08/21 07:21:35;;;;;;;;;;;;;;;21.64;98.47;99293.84;5009056;28;20443;-76
2021/08/21 07:24:00;;;;;;;;;;;;;;;21.80;96.48;99293.56;5008951;28;19964;-76
2021/08/21 07:26:26;;;;;;;;;;;;;;;21.74;95.90;99292.22;5009695;28;19918;-76
2021/08/21 07:28:51;;;;;;;;;;;;;;;21.87;91.92;99289.53;5009271;28;19917;-76
2021/08/21 07:31:16;;;;;;;;;;;;;;;21.98;93.22;99293.97;4993418;28;19975;-76
2021/08/21 07:33:42;;;;;;;;;;;;;;;21.98;92.34;99291.34;5010582;28;19917;-76
2021/08/21 07:36:07;;;;;;;;;;;;;;;21.99;91.39;99298.28;5010272;28;19921;-76
2021/08/21 07:38:32;;;;;;;;;;;;;;;22.08;90.34;99293.19;5009338;28;20020;-76
2021/08/21 07:40:58;;;;;;;;;;;;;;;22.23;87.16;99296.47;4993971;28;19928;-76
2021/08/21 07:43:24;;;;;;;;;;;;;;;22.50;88.60;99295.31;5009253;28;19917;-76
2021/08/21 07:45:49;;;;;;;;;;;;;;;22.67;88.06;99291.38;5011405;28;19924;-76
2021/08/21 07:48:15;;;;;;;;;;;;;;;22.80;87.72;99297.34;5013141;28;19999;-75
2021/08/21 07:50:40;;;;;;;;;;;;;;;22.87;84.96;99295.09;5014461;28;20056;-76
2021/08/21 07:53:05;;;;;;;;;;;;;;;22.81;83.81;99306.06;5010202;28;20393;-76
2021/08/21 07:55:31;;;;;;;;;;;;;;;23.13;86.89;99307.03;4991656;28;19924;-76
2021/08/21 07:57:57;;;;;;;;;;;;;;;23.43;86.35;99312.59;5008548;28;19921;-76
2021/08/21 08:00:22;;;;;;;;;;;;;;;23.64;85.49;99305.59;4992088;28;19972;-76
2021/08/21 08:02:47;;;;;;;;;;;;;;;23.49;85.81;99301.56;5006319;28;19918;-75
2021/08/21 08:05:13;;;;;;;;;;;;;;;23.61;90.33;99312.91;4992619;28;19914;-76
2021/08/21 08:07:38;;;;;;;;;;;;;;;23.87;88.26;99311.63;5009667;28;19919;-77
2021/08/21 08:10:04;;;;;;;;;;;;;;;24.12;81.54;99294.66;5009478;28;19948;-79
2021/08/21 08:12:29;;;;;;;;;;;;;;;24.17;84.85;99308.25;5004459;28;20045;-77
2021/08/21 08:14:54;;;;;;;;;;;;;;;24.33;83.23;99302.53;5007483;28;19922;-76
2021/08/21 08:17:20;;;;;;;;;;;;;;;23.97;77.48;99306.44;5009595;28;20291;-77
2021/08/21 08:19:45;;;;;;;;;;;;;;;24.54;77.25;99307.81;5008820;28;19922;-78
2021/08/21 08:22:10;;;;;;;;;;;;;;;24.73;78.80;99311.50;5009568;28;20265;-76
2021/08/21 08:24:36;;;;;;;;;;;;;;;24.54;82.06;99309.59;5008497;28;20000;-76
2021/08/21 08:27:01;;;;;;;;;;;;;;;23.65;86.42;99312.53;5011178;28;19917;-76
2021/08/21 08:29:26;;;;;;;;;;;;;;;24.31;80.28;99320.25;5007764;28;19929;-77
2021/08/21 08:31:52;;;;;;;;;;;;;;;24.49;80.84;99317.88;5009442;28;19913;-76
2021/08/21 08:34:17;;;;;;;;;;;;;;;24.93;79.12;99325.56;5010024;28;19917;-76
2021/08/21 08:36:42;;;;;;;;;;;;;;;25.04;76.84;99314.94;5010742;28;20429;-77
2021/08/21 08:39:07;;;;;;;;;;;;;;;25.30;76.85;99310.06;5007310;28;20005;-76
2021/08/21 08:41:33;;;;;;;;;;;;;;;25.71;77.90;99316.09;5007831;28;20661;-77
2021/08/21 08:43:58;;;;;;;;;;;;;;;25.69;74.57;99315.38;5008948;28;19918;-76
2021/08/21 08:46:24;;;;;;;;;;;;;;;24.98;75.26;99313.69;5009127;28;19922;-76
2021/08/21 08:48:49;;;;;;;;;;;;;;;25.16;74.80;99315.69;5008369;28;20290;-77
2021/08/21 08:51:15;;;;;;;;;;;;;;;25.38;75.55;99322.56;5007328;28;19949;-77
2021/08/21 08:53:40;;;;;;;;;;;;;;;25.56;75.26;99317.47;5010200;28;19980;-76
2021/08/21 08:56:05;;;;;;;;;;;;;;;25.30;68.87;99317.97;5012308;28;19925;-76
2021/08/21 08:58:31;;;;;;;;;;;;;;;25.98;73.34;99317.22;5007888;28;20369;-76
2021/08/21 09:00:56;;;;;;;;;;;;;;;26.07;71.77;99317.22;5009962;28;19944;-76
2021/08/21 09:03:23;;;;;;;;;;;;;;;26.06;74.11;99325.28;5007684;28;20377;-77
2021/08/21 09:05:49;;;;;;;;;;;;;;;26.05;69.62;99313.88;5009339;28;19917;-77
2021/08/21 09:08:21;;;;;;;;;;;;;;;26.13;71.04;99315.81;5007467;28;19930;-77
2021/08/21 09:10:46;;;;;;;;;;;;;;;26.40;70.17;99323.00;5007192;28;19932;-76
2021/08/21 09:13:13;;;;;;;;;;;;;;;26.83;72.34;99313.72;5008686;28;19961;-77
2021/08/21 09:15:42;;;;;;;;;;;;;;;26.23;70.68;99307.91;5008384;28;19945;-76
2021/08/21 09:18:11;;;;;;;;;;;;;;;25.53;63.80;99321.22;4993554;28;20217;-76
2021/08/21 09:20:48;;;;;;;;;;;;;;;26.33;65.71;99311.34;5011315;28;19929;-77
2021/08/21 09:23:20;;;;;;;;;;;;;;;25.86;58.70;99312.06;4994402;28;19940;-76
2021/08/21 09:25:46;;;;;;;;;;;;;;;26.79;66.25;99306.22;4995956;28;19921;-77
2021/08/21 09:28:19;;;;;;;;;;;;;;;27.21;59.33;99301.31;5010204;28;19932;-77
2021/08/21 09:30:45;;;;;;;;;;;;;;;26.47;63.72;99302.13;4997133;28;19953;-77
2021/08/21 09:33:10;;;;;;;;;;;;;;;26.63;64.33;99307.66;5014787;28;20382;-77
2021/08/21 09:35:36;;;;;;;;;;;;;;;27.57;56.05;99311.09;5010278;28;20622;-77
2021/08/21 09:38:02;;;;;;;;;;;;;;;26.74;60.99;99308.47;4996332;28;19985;-77
2021/08/21 09:40:29;;;;;;;;;;;;;;;26.23;61.73;99306.09;5011461;28;19929;-77
2021/08/21 09:42:55;;;;;;;;;;;;;;;26.98;55.81;99300.88;5010267;28;19922;-77
2021/08/21 09:45:21;;;;;;;;;;;;;;;26.73;49.99;99306.78;5008621;28;19929;-77
2021/08/21 09:47:46;;;;;;;;;;;;;;;27.66;55.05;99310.19;5011265;28;19914;-77
2021/08/21 09:50:15;;;;;;;;;;;;;;;28.26;56.44;99307.75;5011453;28;20012;-77
2021/08/21 09:52:41;;;;;;;;;;;;;;;28.24;54.79;99301.78;5002917;28;19925;-77
2021/08/21 09:55:08;;;;;;;;;;;;;;;28.65;54.08;99302.06;5009646;28;19980;-77
2021/08/21 09:57:34;;;;;;;;;;;;;;;28.98;55.27;99296.88;5015295;28;20566;-77
2021/08/21 10:00:00;;;;;;;;;;;;;;;28.69;55.00;99302.53;5000794;28;19921;-76
2021/08/21 10:02:26;;;;;;;;;;;;;;;29.05;51.44;99297.06;5016091;28;19917;-77
2021/08/21 10:04:54;;;;;;;;;;;;;;;28.11;52.75;99304.00;5015598;28;19924;-77
2021/08/21 10:07:22;;;;;;;;;;;;;;;29.10;54.12;99302.75;5014383;28;19937;-77
2021/08/21 10:09:51;;;;;;;;;;;;;;;29.06;49.93;99299.56;4999534;28;19917;-77
2021/08/21 10:12:17;;;;;;;;;;;;;;;29.90;62.58;99305.75;5014122;28;19925;-77
2021/08/21 10:14:45;;;;;;;;;;;;;;;29.36;47.50;99306.16;5013283;28;19923;-77
2021/08/21 10:17:11;;;;;;;;;;;;;;;29.71;54.82;99309.53;5015241;28;19959;-77
2021/08/21 10:19:36;;;;;;;;;;;;;;;30.05;63.06;99305.91;5016519;28;19953;-77
2021/08/21 10:22:02;;;;;;;;;;;;;;;29.57;45.41;99300.38;5018819;28;19918;-77
2021/08/21 10:24:36;;;;;;;;;;;;;;;28.67;42.92;99300.06;5016168;28;20627;-77
2021/08/21 10:27:07;;;;;;;;;;;;;;;27.83;51.87;99300.59;5016102;28;19921;-76
2021/08/21 10:29:33;;;;;;;;;;;;;;;27.66;45.63;99294.31;4999999;28;19913;-76
2021/08/21 10:31:58;;;;;;;;;;;;;;;29.28;62.84;99292.03;5014551;28;19917;-76
2021/08/21 10:34:23;;;;;;;;;;;;;;;30.47;44.00;99288.09;5015567;28;19928;-76
2021/08/21 10:36:56;;;;;;;;;;;;;;;28.55;44.53;99280.13;5015993;28;19937;-77
2021/08/21 10:39:30;;;;;;;;;;;;;;;30.11;43.43;99283.16;4996027;28;19918;-76
2021/08/21 10:41:55;;;;;;;;;;;;;;;28.82;45.99;99278.25;4996007;28;19924;-77
2021/08/21 10:44:41;;;;;;;;;;;;;;;30.55;42.57;99280.09;5015187;28;19921;-77
2021/08/21 10:47:07;;;;;;;;;;;;;;;30.51;49.96;99279.59;5000691;28;19968;-77
2021/08/21 10:49:39;;;;;;;;;;;;;;;31.24;44.40;99275.81;5012944;28;19952;-77
2021/08/21 10:52:08;;;;;;;;;;;;;;;32.26;44.07;99272.06;5015115;28;19928;-77
2021/08/21 10:54:33;;;;;;;;;;;;;;;30.85;40.45;99271.38;5016147;28;19913;-77
2021/08/21 10:57:19;;;;;;;;;;;;;;;31.41;44.89;99270.44;4993101;28;20455;-76
2021/08/21 10:59:45;;;;;;;;;;;;;;;30.63;44.00;99272.09;5001776;28;19918;-77
2021/08/21 11:02:26;;;;;;;;;;;;;;;32.02;43.63;99267.78;5016751;28;19914;-77
2021/08/21 11:04:52;;;;;;;;;;;;;;;31.04;43.04;99263.97;5000597;28;19917;-77
2021/08/21 11:07:29;;;;;;;;;;;;;;;32.46;41.44;99261.69;5016214;28;20008;-78
2021/08/21 11:10:30;;;;;;;;;;;;;;;29.63;51.22;99261.75;5012953;28;20333;-77
2021/08/21 11:12:56;;;;;;;;;;;;;;;31.36;42.56;99256.78;5019967;28;19961;-77
2021/08/21 11:15:22;;;;;;;;;;;;;;;33.50;41.87;99259.66;5019168;28;19957;-77
2021/08/21 11:17:48;;;;;;;;;;;;;;;33.54;40.45;99262.78;5016088;28;20341;-78
2021/08/21 11:20:23;;;;;;;;;;;;;;;32.47;36.71;99250.00;5008372;28;19967;-77
2021/08/21 11:23:07;;;;;;;;;;;;;;;33.04;38.71;99251.16;5011258;28;20381;-78
2021/08/21 11:25:33;;;;;;;;;;;;;;;34.85;38.16;99244.38;4998730;28;19914;-77
2021/08/21 11:28:02;;;;;;;;;;;;;;;34.66;41.56;99250.47;5017550;28;19980;-77
2021/08/21 11:30:28;;;;;;;;;;;;;;;34.09;36.81;99250.50;5014593;28;20286;-78
2021/08/21 11:32:54;;;;;;;;;;;;;;;34.72;40.65;99252.38;5017458;28;19949;-77
2021/08/21 11:35:21;;;;;;;;;;;;;;;33.85;42.25;99250.94;5000024;28;19917;-77
2021/08/21 11:37:51;;;;;;;;;;;;;;;34.55;41.46;99246.47;5016338;28;20337;-77
2021/08/21 11:40:16;;;;;;;;;;;;;;;33.02;34.87;99245.16;4998093;28;19917;-77
2021/08/21 11:42:52;;;;;;;;;;;;;;;32.60;34.28;99244.06;5016062;28;19914;-77
2021/08/21 11:45:18;;;;;;;;;;;;;;;33.48;40.36;99247.50;4992163;28;19902;-77
2021/08/21 11:47:43;;;;;;;;;;;;;;;32.03;37.65;99240.97;5014234;28;19914;-78
2021/08/21 11:50:22;;;;;;;;;;;;;;;32.94;43.18;99243.44;5016662;28;19967;-77
2021/08/21 11:52:48;;;;;;;;;;;;;;;32.85;42.72;99242.72;5014942;28;19949;-77
2021/08/21 11:55:14;;;;;;;;;;;;;;;33.84;38.76;99238.59;5013895;28;19914;-77
2021/08/21 11:57:43;;;;;;;;;;;;;;;32.06;35.86;99237.13;5020002;28;20508;-78
2021/08/21 12:00:15;;;;;;;;;;;;;;;31.55;37.84;99237.72;5010651;28;19917;-77
2021/08/21 12:02:45;;;;;;;;;;;;;;;30.36;36.17;99239.63;5014796;28;20306;-77
2021/08/21 12:05:10;;;;;;;;;;;;;;;32.71;51.68;99240.94;5013778;28;19914;-78
2021/08/21 12:07:35;;;;;;;;;;;;;;;30.95;36.12;99241.06;4995357;28;19929;-77
2021/08/21 12:10:01;;;;;;;;;;;;;;;30.24;38.16;99235.63;5015991;28;19913;-78
2021/08/21 12:12:34;;;;;;;;;;;;;;;30.70;36.97;99227.03;5015823;28;20024;-78
2021/08/21 12:15:00;;;;;;;;;;;;;;;30.20;38.50;99229.84;5016063;28;20000;-77
2021/08/21 12:17:25;;;;;;;;;;;;;;;31.81;41.57;99224.00;5014580;28;19922;-78
2021/08/21 12:19:50;;;;;;;;;;;;;;;32.41;39.19;99226.75;5016164;28;20382;-77
2021/08/21 12:22:16;;;;;;;;;;;;;;;31.53;37.79;99223.75;4996775;28;19917;-77
2021/08/21 12:24:54;;;;;;;;;;;;;;;29.83;40.83;99222.41;5014963;28;19920;-78
2021/08/21 12:27:26;;;;;;;;;;;;;;;30.82;38.64;99221.16;5011466;28;19922;-78
2021/08/21 12:30:06;;;;;;;;;;;;;;;31.63;39.66;99216.34;4992505;28;19918;-78
2021/08/21 12:32:31;;;;;;;;;;;;;;;30.35;39.44;99208.72;5014428;28;19922;-77
2021/08/21 12:35:07;;;;;;;;;;;;;;;28.92;39.96;99217.97;5010338;28;19913;-77
2021/08/21 12:37:32;;;;;;;;;;;;;;;29.69;38.92;99223.09;5013333;28;19953;-77
2021/08/21 12:40:07;;;;;;;;;;;;;;;31.01;43.09;99213.78;5002025;28;19952;-78
2021/08/21 12:42:33;;;;;;;;;;;;;;;30.91;38.20;99205.22;4999996;28;19920;-78
2021/08/21 12:45:00;;;;;;;;;;;;;;;30.52;38.96;99204.19;5011282;28;19918;-78